createdAt,value
2023-02-08T00:00:33.107Z,743.70
2023-02-08T00:01:33.045Z,729.60
2023-02-08T00:02:33.072Z,734.90
2023-02-08T00:03:33.061Z,768.00
2023-02-08T00:04:32.994Z,764.50
2023-02-08T00:05:33.008Z,741.60
2023-02-08T00:06:32.961Z,707.40
2023-02-08T00:07:32.995Z,680.70
2023-02-08T00:08:32.963Z,663.20
2023-02-08T00:09:32.949Z,671.20
2023-02-08T00:10:32.969Z,668.90
2023-02-08T00:11:32.923Z,673.40
2023-02-08T00:12:32.908Z,666.20
2023-02-08T00:13:32.891Z,668.70
2023-02-08T00:14:32.859Z,667.20
2023-02-08T00:15:32.896Z,671.80
2023-02-08T00:16:32.857Z,666.30
2023-02-08T00:17:32.838Z,663.00
2023-02-08T00:18:32.840Z,666.60
2023-02-08T00:19:32.825Z,671.10
2023-02-08T00:20:32.864Z,669.30
2023-02-08T00:21:32.812Z,639.30
2023-02-08T00:22:32.823Z,654.80
2023-02-08T00:23:32.804Z,644.30
2023-02-08T00:24:32.784Z,651.70
2023-02-08T00:25:32.823Z,657.50
2023-02-08T00:26:32.782Z,658.90
2023-02-08T00:27:32.765Z,676.40
2023-02-08T00:28:32.824Z,704.30
2023-02-08T00:29:32.727Z,682.50
2023-02-08T00:30:32.827Z,674.90
2023-02-08T00:31:32.751Z,678.30
2023-02-08T00:32:32.717Z,673.20
2023-02-08T00:33:32.678Z,674.10
2023-02-08T00:34:32.661Z,681.50
2023-02-08T00:35:32.696Z,708.10
2023-02-08T00:36:32.651Z,732.20
2023-02-08T00:37:32.638Z,701.90
2023-02-08T00:38:32.624Z,723.90
2023-02-08T00:39:32.642Z,723.20
2023-02-08T00:40:32.655Z,724.90
2023-02-08T00:41:32.603Z,689.60
2023-02-08T00:42:32.608Z,689.60
2023-02-08T00:43:32.587Z,714.50
2023-02-08T00:44:32.554Z,730.90
2023-02-08T00:45:32.596Z,739.20
2023-02-08T00:46:32.570Z,738.60
2023-02-08T00:47:32.527Z,706.70
2023-02-08T00:48:32.530Z,717.80
2023-02-08T00:49:32.503Z,706.10
2023-02-08T00:50:32.528Z,715.80
2023-02-08T00:51:32.487Z,710.90
2023-02-08T00:52:32.474Z,716.30
2023-02-08T00:53:32.484Z,733.10
2023-02-08T00:54:32.474Z,747.20
2023-02-08T00:55:32.484Z,767.90
2023-02-08T00:56:32.453Z,798.00
2023-02-08T00:57:32.416Z,811.50
2023-02-08T00:58:32.430Z,829.20
2023-02-08T00:59:32.398Z,820.80
2023-02-08T01:00:32.477Z,836.30
2023-02-08T01:01:32.378Z,853.50
2023-02-08T01:02:32.361Z,850.90
2023-02-08T01:03:32.371Z,886.40
2023-02-08T01:04:32.349Z,888.60
2023-02-08T01:05:32.389Z,863.70
2023-02-08T01:06:32.316Z,847.80
2023-02-08T01:07:32.326Z,877.00
2023-02-08T01:08:32.302Z,879.60
2023-02-08T01:09:32.312Z,874.70
2023-02-08T01:10:32.334Z,848.10
2023-02-08T01:11:32.270Z,843.50
2023-02-08T01:12:32.260Z,852.10
2023-02-08T01:13:32.257Z,856.90
2023-02-08T01:14:32.244Z,853.20
2023-02-08T01:15:32.249Z,859.00
2023-02-08T01:16:32.209Z,855.40
2023-02-08T01:17:32.202Z,866.80
2023-02-08T01:18:32.197Z,851.50
2023-02-08T01:19:32.192Z,844.10
2023-02-08T01:20:32.211Z,844.40
2023-02-08T01:21:32.170Z,843.80
2023-02-08T01:22:32.166Z,834.50
2023-02-08T01:23:32.141Z,831.40
2023-02-08T01:24:32.122Z,861.30
2023-02-08T01:25:32.143Z,873.50
2023-02-08T01:26:32.093Z,934.40
2023-02-08T01:27:32.105Z,969.60
2023-02-08T01:28:32.080Z,1038.50
2023-02-08T01:29:32.095Z,1053.90
2023-02-08T01:30:32.123Z,1055.10
2023-02-08T01:31:32.183Z,1058.00
2023-02-08T01:32:32.038Z,1071.80
2023-02-08T01:33:32.058Z,1063.30
2023-02-08T01:34:32.030Z,1068.90
2023-02-08T01:35:32.047Z,1071.10
2023-02-08T01:36:32.051Z,1060.20
2023-02-08T01:37:31.978Z,1056.60
2023-02-08T01:38:32.009Z,1064.20
2023-02-08T01:39:31.966Z,1076.70
2023-02-08T01:40:31.979Z,1074.80
2023-02-08T01:41:31.948Z,1086.70
2023-02-08T01:42:31.938Z,1082.30
2023-02-08T01:43:31.911Z,1078.90
2023-02-08T01:44:31.889Z,1047.30
2023-02-08T01:45:31.998Z,1055.10
2023-02-08T01:46:31.900Z,1085.90
2023-02-08T01:47:31.898Z,1051.70
2023-02-08T01:48:31.902Z,1070.40
2023-02-08T01:49:31.861Z,1072.10
2023-02-08T01:50:31.884Z,1097.10
2023-02-08T01:51:31.848Z,1114.70
2023-02-08T01:52:31.825Z,1114.10
2023-02-08T01:53:31.841Z,1088.10
2023-02-08T01:54:31.787Z,1083.30
2023-02-08T01:55:31.837Z,1042.80
2023-02-08T01:56:31.771Z,992.80
2023-02-08T01:57:31.767Z,1032.10
2023-02-08T01:58:31.762Z,1089.40
2023-02-08T01:59:31.777Z,1093.00
2023-02-08T02:00:31.770Z,1101.60
2023-02-08T02:01:31.730Z,1108.70
2023-02-08T02:02:31.731Z,1104.40
2023-02-08T02:03:31.708Z,1087.10
2023-02-08T02:04:31.727Z,1073.80
2023-02-08T02:05:31.746Z,1064.50
2023-02-08T02:06:31.674Z,1064.00
2023-02-08T02:07:31.663Z,1072.10
2023-02-08T02:08:31.641Z,1075.10
2023-02-08T02:09:31.659Z,1066.50
2023-02-08T02:10:31.667Z,1061.00
2023-02-08T02:11:31.637Z,1070.60
2023-02-08T02:12:32.596Z,1056.30
2023-02-08T02:13:31.580Z,1071.70
2023-02-08T02:14:31.573Z,1056.50
2023-02-08T02:15:31.598Z,1077.40
2023-02-08T02:16:31.593Z,1064.80
2023-02-08T02:17:31.553Z,1068.80
2023-02-08T02:18:31.552Z,1038.50
2023-02-08T02:19:31.551Z,990.50
2023-02-08T02:20:31.552Z,969.50
2023-02-08T02:21:31.533Z,951.50
2023-02-08T02:22:31.565Z,953.00
2023-02-08T02:23:31.484Z,948.70
2023-02-08T02:24:31.513Z,943.20
2023-02-08T02:25:31.529Z,978.60
2023-02-08T02:26:31.473Z,968.80
2023-02-08T02:27:31.452Z,965.30
2023-02-08T02:28:31.420Z,947.70
2023-02-08T02:29:31.439Z,928.50
2023-02-08T02:30:31.527Z,926.40
2023-02-08T02:31:31.417Z,895.70
2023-02-08T02:32:31.404Z,888.70
2023-02-08T02:33:31.393Z,874.50
2023-02-08T02:34:31.360Z,869.10
2023-02-08T02:35:31.392Z,852.00
2023-02-08T02:36:31.339Z,872.20
2023-02-08T02:37:31.365Z,853.40
2023-02-08T02:38:31.320Z,887.60
2023-02-08T02:39:31.317Z,893.80
2023-02-08T02:40:31.323Z,908.50
2023-02-08T02:41:31.343Z,906.20
2023-02-08T02:42:31.313Z,890.50
2023-02-08T02:43:31.256Z,851.20
2023-02-08T02:44:31.245Z,831.90
2023-02-08T02:45:31.323Z,820.70
2023-02-08T02:46:31.242Z,820.30
2023-02-08T02:47:31.238Z,828.30
2023-02-08T02:48:31.232Z,848.40
2023-02-08T02:49:31.209Z,832.30
2023-02-08T02:50:31.237Z,825.20
2023-02-08T02:51:31.214Z,829.30
2023-02-08T02:52:31.167Z,825.60
2023-02-08T02:53:31.183Z,828.40
2023-02-08T02:54:31.159Z,820.20
2023-02-08T02:55:31.176Z,765.90
2023-02-08T02:56:31.146Z,793.50
2023-02-08T02:57:31.147Z,781.10
2023-02-08T02:58:31.120Z,780.70
2023-02-08T02:59:31.100Z,779.50
2023-02-08T03:00:31.149Z,773.90
2023-02-08T03:01:31.210Z,790.50
2023-02-08T03:02:31.082Z,783.80
2023-02-08T03:03:31.066Z,788.30
2023-02-08T03:04:31.080Z,781.70
2023-02-08T03:05:31.093Z,823.50
2023-02-08T03:06:31.037Z,811.10
2023-02-08T03:07:31.026Z,795.10
2023-02-08T03:08:31.023Z,776.10
2023-02-08T03:09:30.999Z,776.60
2023-02-08T03:10:31.047Z,799.60
2023-02-08T03:11:30.993Z,815.30
2023-02-08T03:12:30.976Z,805.20
2023-02-08T03:13:30.935Z,809.80
2023-02-08T03:14:30.938Z,789.70
2023-02-08T03:15:30.952Z,835.50
2023-02-08T03:16:30.938Z,831.00
2023-02-08T03:17:30.918Z,800.90
2023-02-08T03:18:30.906Z,808.80
2023-02-08T03:19:30.903Z,815.70
2023-02-08T03:20:30.923Z,821.50
2023-02-08T03:21:30.891Z,797.70
2023-02-08T03:22:30.844Z,797.90
2023-02-08T03:23:30.848Z,806.80
2023-02-08T03:24:30.843Z,816.60
2023-02-08T03:25:30.858Z,827.70
2023-02-08T03:26:30.820Z,855.20
2023-02-08T03:27:30.808Z,867.10
2023-02-08T03:28:30.812Z,861.40
2023-02-08T03:29:30.785Z,867.80
2023-02-08T03:30:30.800Z,851.20
2023-02-08T03:31:31.046Z,843.60
2023-02-08T03:32:30.748Z,821.20
2023-02-08T03:33:30.732Z,819.20
2023-02-08T03:34:30.728Z,812.60
2023-02-08T03:35:30.742Z,826.10
2023-02-08T03:36:30.693Z,838.50
2023-02-08T03:37:30.699Z,838.20
2023-02-08T03:38:30.678Z,823.00
2023-02-08T03:39:30.669Z,854.20
2023-02-08T03:40:30.709Z,864.00
2023-02-08T03:41:30.682Z,859.10
2023-02-08T03:42:30.645Z,865.70
2023-02-08T03:43:30.633Z,866.40
2023-02-08T03:44:30.604Z,864.30
2023-02-08T03:45:30.632Z,869.80
2023-02-08T03:46:30.590Z,875.20
2023-02-08T03:47:30.582Z,866.50
2023-02-08T03:48:30.587Z,875.70
2023-02-08T03:49:30.558Z,862.80
2023-02-08T03:50:30.588Z,851.50
2023-02-08T03:51:30.560Z,839.90
2023-02-08T03:52:30.528Z,825.80
2023-02-08T03:53:30.526Z,818.50
2023-02-08T03:54:30.525Z,838.30
2023-02-08T03:55:30.567Z,845.90
2023-02-08T03:56:30.466Z,861.40
2023-02-08T03:57:30.487Z,848.70
2023-02-08T03:58:30.444Z,849.80
2023-02-08T03:59:30.457Z,841.90
2023-02-08T04:00:30.470Z,855.60
2023-02-08T04:01:30.472Z,865.70
2023-02-08T04:02:30.466Z,845.60
2023-02-08T04:03:30.428Z,831.90
2023-02-08T04:04:30.403Z,816.60
2023-02-08T04:05:30.419Z,813.80
2023-02-08T04:06:30.379Z,811.80
2023-02-08T04:07:30.374Z,803.90
2023-02-08T04:08:30.366Z,812.00
2023-02-08T04:09:30.345Z,815.30
2023-02-08T04:10:30.381Z,814.00
2023-02-08T04:11:30.329Z,810.80
2023-02-08T04:12:30.312Z,808.40
2023-02-08T04:13:30.290Z,806.00
2023-02-08T04:14:30.285Z,797.00
2023-02-08T04:15:30.372Z,822.20
2023-02-08T04:16:30.278Z,801.00
2023-02-08T04:17:30.260Z,815.50
2023-02-08T04:18:30.242Z,789.40
2023-02-08T04:19:30.258Z,804.80
2023-02-08T04:20:30.254Z,808.60
2023-02-08T04:21:30.222Z,826.50
2023-02-08T04:22:30.229Z,837.60
2023-02-08T04:23:30.202Z,825.20
2023-02-08T04:24:30.198Z,835.10
2023-02-08T04:25:30.180Z,814.20
2023-02-08T04:26:30.209Z,847.40
2023-02-08T04:27:30.150Z,828.60
2023-02-08T04:28:30.127Z,830.40
2023-02-08T04:29:30.143Z,804.80
2023-02-08T04:30:30.193Z,821.40
2023-02-08T04:31:30.354Z,821.00
2023-02-08T04:32:30.088Z,815.70
2023-02-08T04:33:30.108Z,830.40
2023-02-08T04:34:30.087Z,825.10
2023-02-08T04:35:30.067Z,819.20
2023-02-08T04:36:30.093Z,827.60
2023-02-08T04:37:30.047Z,818.20
2023-02-08T04:38:30.033Z,782.80
2023-02-08T04:39:30.057Z,795.60
2023-02-08T04:40:30.052Z,769.00
2023-02-08T04:41:30.047Z,774.40
2023-02-08T04:42:30.001Z,778.60
2023-02-08T04:43:29.999Z,758.40
2023-02-08T04:44:29.955Z,766.80
2023-02-08T04:45:29.961Z,764.20
2023-02-08T04:46:30.079Z,774.50
2023-02-08T04:47:29.945Z,772.40
2023-02-08T04:48:29.937Z,771.90
2023-02-08T04:49:29.916Z,772.50
2023-02-08T04:50:29.922Z,762.80
2023-02-08T04:51:29.951Z,768.00
2023-02-08T04:52:29.894Z,770.10
2023-02-08T04:53:29.897Z,767.40
2023-02-08T04:54:29.874Z,776.00
2023-02-08T04:55:29.867Z,791.20
2023-02-08T04:56:29.877Z,787.10
2023-02-08T04:57:29.847Z,784.40
2023-02-08T04:58:29.827Z,799.00
2023-02-08T04:59:29.823Z,798.10
2023-02-08T05:00:29.803Z,824.40
2023-02-08T05:01:29.873Z,821.30
2023-02-08T05:02:29.774Z,826.10
2023-02-08T05:03:29.793Z,859.90
2023-02-08T05:04:29.769Z,861.60
2023-02-08T05:05:29.748Z,851.60
2023-02-08T05:06:29.764Z,864.50
2023-02-08T05:07:29.724Z,851.30
2023-02-08T05:08:29.708Z,857.60
2023-02-08T05:09:29.729Z,766.40
2023-02-08T05:10:29.704Z,717.20
2023-02-08T05:11:29.724Z,684.10
2023-02-08T05:12:29.666Z,690.90
2023-02-08T05:13:29.658Z,724.30
2023-02-08T05:14:29.624Z,733.10
2023-02-08T05:15:29.638Z,734.20
2023-02-08T05:16:29.686Z,744.30
2023-02-08T05:17:29.619Z,726.90
2023-02-08T05:18:29.600Z,744.40
2023-02-08T05:19:29.600Z,756.60
2023-02-08T05:20:29.581Z,798.60
2023-02-08T05:21:29.564Z,773.70
2023-02-08T05:22:29.621Z,764.20
2023-02-08T05:23:29.555Z,753.60
2023-02-08T05:24:29.546Z,767.30
2023-02-08T05:25:29.522Z,781.00
2023-02-08T05:26:29.518Z,788.40
2023-02-08T05:27:29.597Z,813.10
2023-02-08T05:28:29.480Z,752.10
2023-02-08T05:29:29.481Z,959.00
2023-02-08T05:30:29.474Z,994.10
2023-02-08T05:31:29.533Z,1148.70
2023-02-08T05:32:29.490Z,1238.50
2023-02-08T05:33:29.444Z,1999.90
2023-02-08T05:34:29.455Z,1999.90
2023-02-08T05:35:29.429Z,1999.90
2023-02-08T05:36:29.445Z,1999.90
2023-02-08T05:37:29.458Z,1999.90
2023-02-08T05:38:29.391Z,1999.90
2023-02-08T05:39:29.374Z,1999.90
2023-02-08T05:40:29.385Z,1999.90
2023-02-08T05:41:29.364Z,1999.90
2023-02-08T05:42:29.403Z,1999.90
2023-02-08T05:43:29.317Z,1999.90
2023-02-08T05:44:29.321Z,1999.90
2023-02-08T05:45:29.283Z,1999.90
2023-02-08T05:46:29.322Z,1999.90
2023-02-08T05:47:29.304Z,1999.90
2023-02-08T05:48:29.276Z,1999.90
2023-02-08T05:49:29.283Z,1999.90
2023-02-08T05:50:29.287Z,1999.90
2023-02-08T05:51:29.226Z,1999.90
2023-02-08T05:52:29.310Z,1999.90
2023-02-08T05:53:29.237Z,1999.90
2023-02-08T05:54:29.210Z,1626.50
2023-02-08T05:55:29.208Z,1211.10
2023-02-08T05:56:29.193Z,1052.60
2023-02-08T05:57:31.405Z,866.60
2023-02-08T05:58:29.194Z,866.80
2023-02-08T05:59:29.140Z,870.30
2023-02-08T06:00:29.153Z,853.80
2023-02-08T06:01:29.159Z,719.10
2023-02-08T06:02:29.149Z,654.50
2023-02-08T06:03:29.116Z,697.30
2023-02-08T06:04:29.101Z,816.60
2023-02-08T06:05:29.106Z,811.80
2023-02-08T06:06:29.096Z,710.30
2023-02-08T06:07:29.129Z,659.20
2023-02-08T06:08:29.076Z,688.90
2023-02-08T06:09:29.060Z,595.80
2023-02-08T06:10:29.071Z,744.90
2023-02-08T06:11:29.045Z,696.20
2023-02-08T06:12:29.086Z,671.60
2023-02-08T06:13:29.073Z,661.30
2023-02-08T06:14:29.022Z,634.40
2023-02-08T06:15:28.967Z,613.50
2023-02-08T06:16:29.001Z,648.40
2023-02-08T06:17:29.021Z,555.10
2023-02-08T06:18:28.984Z,534.20
2023-02-08T06:19:28.955Z,595.90
2023-02-08T06:20:28.932Z,675.40
2023-02-08T06:21:28.923Z,600.30
2023-02-08T06:22:28.959Z,649.70
2023-02-08T06:23:28.907Z,703.80
2023-02-08T06:24:28.880Z,567.40
2023-02-08T06:25:28.876Z,567.80
2023-02-08T06:26:28.889Z,573.10
2023-02-08T06:27:28.897Z,654.20
2023-02-08T06:28:28.897Z,623.50
2023-02-08T06:29:28.843Z,644.50
2023-02-08T06:30:28.845Z,703.80
2023-02-08T06:31:28.829Z,733.30
2023-02-08T06:32:28.909Z,687.80
2023-02-08T06:33:28.794Z,707.40
2023-02-08T06:34:28.798Z,754.40
2023-02-08T06:35:28.774Z,832.20
2023-02-08T06:36:28.764Z,746.60
2023-02-08T06:37:28.775Z,809.80
2023-02-08T06:38:28.739Z,828.70
2023-02-08T06:39:28.740Z,718.40
2023-02-08T06:40:28.731Z,1223.40
2023-02-08T06:41:28.740Z,1295.80
2023-02-08T06:42:28.734Z,1999.90
2023-02-08T06:43:28.670Z,1999.90
2023-02-08T06:44:28.657Z,1999.90
2023-02-08T06:45:28.690Z,1999.90
2023-02-08T06:46:28.661Z,1999.90
2023-02-08T06:47:28.746Z,1999.90
2023-02-08T06:48:28.626Z,1999.90
2023-02-08T06:49:28.618Z,1999.90
2023-02-08T06:50:28.624Z,1999.90
2023-02-08T06:51:28.596Z,1999.90
2023-02-08T06:52:28.683Z,1999.90
2023-02-08T06:53:28.569Z,1999.90
2023-02-08T06:54:28.572Z,1999.90
2023-02-08T06:55:28.546Z,1999.90
2023-02-08T06:56:28.600Z,1999.90
2023-02-08T06:57:28.594Z,1999.90
2023-02-08T06:58:28.525Z,1999.90
2023-02-08T06:59:28.524Z,1999.90
2023-02-08T07:00:28.512Z,1999.90
2023-02-08T07:01:28.523Z,1999.90
2023-02-08T07:02:28.561Z,1999.90
2023-02-08T07:03:28.480Z,1999.90
2023-02-08T07:04:28.459Z,1999.90
2023-02-08T07:05:28.473Z,1999.90
2023-02-08T07:06:28.444Z,1999.90
2023-02-08T07:07:28.455Z,1999.90
2023-02-08T07:08:28.432Z,1999.90
2023-02-08T07:09:28.418Z,1999.90
2023-02-08T07:10:28.401Z,1999.90
2023-02-08T07:11:28.381Z,1999.90
2023-02-08T07:12:28.426Z,1999.90
2023-02-08T07:13:28.385Z,1999.90
2023-02-08T07:14:28.347Z,1999.90
2023-02-08T07:15:28.341Z,1999.90
2023-02-08T07:16:28.369Z,1999.90
2023-02-08T07:17:28.356Z,1999.90
2023-02-08T07:18:28.312Z,1999.90
2023-02-08T07:19:28.333Z,1999.90
2023-02-08T07:20:28.295Z,1999.90
2023-02-08T07:21:28.308Z,1999.90
2023-02-08T07:22:28.262Z,1999.90
2023-02-08T07:23:28.310Z,1999.90
2023-02-08T07:24:28.239Z,1999.90
2023-02-08T07:25:28.232Z,1999.90
2023-02-08T07:26:28.273Z,1999.90
2023-02-08T07:27:28.223Z,1999.90
2023-02-08T07:28:28.251Z,1999.90
2023-02-08T07:29:28.197Z,1999.90
2023-02-08T07:30:28.261Z,1999.90
2023-02-08T07:31:28.238Z,1999.90
2023-02-08T07:32:28.194Z,1999.90
2023-02-08T07:33:28.187Z,1999.90
2023-02-08T07:34:28.155Z,1999.90
2023-02-08T07:35:28.131Z,1999.90
2023-02-08T07:36:28.132Z,1999.90
2023-02-08T07:37:28.121Z,1999.90
2023-02-08T07:38:28.158Z,166.30
2023-02-08T07:39:28.100Z,862.10
2023-02-08T07:40:28.126Z,1999.90
2023-02-08T07:41:28.074Z,1999.90
2023-02-08T07:42:28.042Z,559.40
2023-02-08T07:43:28.064Z,623.30
2023-02-08T07:44:28.039Z,872.40
2023-02-08T07:45:28.026Z,872.40
2023-02-08T07:46:28.068Z,567.60
2023-02-08T07:47:28.018Z,356.20
2023-02-08T07:48:28.043Z,341.40
2023-02-08T07:49:27.989Z,293.80
2023-02-08T07:50:27.994Z,160.00
2023-02-08T07:51:27.982Z,134.30
2023-02-08T07:52:27.950Z,134.80
2023-02-08T07:53:27.954Z,180.20
2023-02-08T07:54:27.929Z,109.30
2023-02-08T07:55:27.933Z,97.90
2023-02-08T07:56:27.907Z,89.60
2023-02-08T07:57:27.874Z,84.10
2023-02-08T07:58:27.938Z,100.20
2023-02-08T07:59:27.859Z,103.00
2023-02-08T08:00:27.872Z,118.10
2023-02-08T08:01:27.852Z,128.10
2023-02-08T08:02:27.848Z,143.20
2023-02-08T08:03:27.842Z,131.20
2023-02-08T08:04:27.842Z,94.00
2023-02-08T08:05:27.809Z,80.10
2023-02-08T08:06:27.826Z,64.30
2023-02-08T08:07:27.782Z,55.00
2023-02-08T08:08:27.767Z,62.10
2023-02-08T08:09:27.782Z,58.20
2023-02-08T08:10:27.743Z,59.00
2023-02-08T08:11:27.734Z,69.50
2023-02-08T08:12:27.718Z,66.60
2023-02-08T08:13:27.688Z,72.40
2023-02-08T08:14:27.750Z,97.40
2023-02-08T08:15:27.702Z,99.10
2023-02-08T08:16:27.741Z,110.10
2023-02-08T08:17:29.856Z,119.70
2023-02-08T08:18:27.767Z,148.50
2023-02-08T08:19:27.706Z,172.40
2023-02-08T08:20:27.652Z,145.20
2023-02-08T08:21:27.615Z,191.50
2023-02-08T08:22:27.610Z,101.40
2023-02-08T08:23:27.593Z,168.60
2023-02-08T08:24:27.626Z,144.00
2023-02-08T08:25:27.595Z,125.90
2023-02-08T08:26:27.618Z,159.40
2023-02-08T08:27:27.567Z,98.60
2023-02-08T08:28:27.776Z,70.10
2023-02-08T08:29:27.574Z,62.50
2023-02-08T08:30:27.571Z,64.80
2023-02-08T08:31:27.592Z,40.30
2023-02-08T08:32:27.544Z,31.80
2023-02-08T08:33:27.535Z,25.00
2023-02-08T08:34:27.550Z,25.40
2023-02-08T08:35:27.478Z,25.00
2023-02-08T08:36:27.482Z,27.90
2023-02-08T08:37:27.446Z,25.70
2023-02-08T08:38:27.430Z,24.30
2023-02-08T08:39:27.483Z,26.80
2023-02-08T08:40:27.399Z,29.20
2023-02-08T08:41:27.443Z,37.00
2023-02-08T08:42:27.375Z,35.60
2023-02-08T08:43:27.390Z,35.10
2023-02-08T08:44:27.388Z,38.50
2023-02-08T08:45:27.363Z,34.50
2023-02-08T08:46:27.358Z,37.20
2023-02-08T08:47:27.324Z,38.30
2023-02-08T08:48:27.347Z,40.30
2023-02-08T08:49:27.457Z,40.80
2023-02-08T08:50:27.319Z,32.40
2023-02-08T08:51:27.289Z,36.60
2023-02-08T08:52:27.271Z,37.60
2023-02-08T08:53:27.291Z,39.60
2023-02-08T08:54:27.305Z,35.80
2023-02-08T08:55:27.234Z,34.20
2023-02-08T08:56:27.246Z,33.80
2023-02-08T08:57:27.233Z,35.00
2023-02-08T08:58:27.209Z,35.50
2023-02-08T08:59:27.244Z,30.10
2023-02-08T09:00:27.233Z,33.20
2023-02-08T09:01:27.186Z,29.30
2023-02-08T09:02:27.162Z,24.70
2023-02-08T09:03:27.253Z,20.80
2023-02-08T09:04:27.153Z,20.70
2023-02-08T09:05:27.174Z,21.70
2023-02-08T09:06:27.175Z,20.80
2023-02-08T09:07:27.112Z,21.80
2023-02-08T09:08:27.124Z,19.60
2023-02-08T09:09:27.073Z,19.20
2023-02-08T09:10:27.111Z,20.50
2023-02-08T09:11:27.080Z,20.50
2023-02-08T09:12:27.056Z,23.70
2023-02-08T09:13:27.036Z,22.70
2023-02-08T09:14:27.057Z,28.40
2023-02-08T09:15:27.101Z,30.40
2023-02-08T09:16:27.046Z,35.10
2023-02-08T09:17:27.004Z,34.20
2023-02-08T09:18:26.991Z,35.70
2023-02-08T09:19:26.968Z,28.90
2023-02-08T09:20:26.972Z,27.20
2023-02-08T09:21:26.972Z,27.90
2023-02-08T09:22:26.954Z,31.40
2023-02-08T09:23:26.928Z,27.80
2023-02-08T09:24:26.940Z,27.00
2023-02-08T09:25:26.951Z,25.60
2023-02-08T09:26:26.901Z,21.00
2023-02-08T09:27:26.876Z,22.30
2023-02-08T09:28:26.880Z,19.80
2023-02-08T09:29:26.863Z,23.10
2023-02-08T09:30:26.893Z,22.90
2023-02-08T09:31:26.968Z,22.50
2023-02-08T09:32:26.821Z,28.60
2023-02-08T09:33:26.842Z,23.90
2023-02-08T09:34:26.802Z,26.70
2023-02-08T09:35:26.823Z,27.40
2023-02-08T09:36:26.782Z,25.50
2023-02-08T09:37:26.777Z,30.20
2023-02-08T09:38:26.772Z,27.90
2023-02-08T09:39:26.752Z,27.10
2023-02-08T09:40:26.755Z,25.70
2023-02-08T09:41:26.733Z,25.10
2023-02-08T09:42:26.777Z,26.00
2023-02-08T09:43:26.705Z,28.30
2023-02-08T09:44:26.681Z,30.10
2023-02-08T09:45:26.738Z,29.10
2023-02-08T09:46:26.691Z,26.00
2023-02-08T09:47:26.679Z,25.50
2023-02-08T09:48:26.656Z,21.20
2023-02-08T09:49:26.650Z,19.70
2023-02-08T09:50:26.687Z,19.20
2023-02-08T09:51:26.614Z,18.30
2023-02-08T09:52:26.623Z,17.40
2023-02-08T09:53:26.582Z,17.10
2023-02-08T09:54:26.584Z,21.40
2023-02-08T09:55:26.616Z,21.30
2023-02-08T09:56:26.573Z,21.00
2023-02-08T09:57:26.610Z,23.60
2023-02-08T09:58:26.518Z,25.50
2023-02-08T09:59:26.540Z,23.40
2023-02-08T10:00:26.591Z,23.40
2023-02-08T10:01:26.547Z,25.20
2023-02-08T10:02:26.496Z,27.70
2023-02-08T10:03:26.542Z,32.80
2023-02-08T10:04:26.479Z,38.40
2023-02-08T10:05:26.511Z,39.20
2023-02-08T10:06:26.462Z,39.60
2023-02-08T10:07:26.431Z,38.50
2023-02-08T10:08:34.684Z,33.00
2023-02-08T10:09:27.441Z,25.90
2023-02-08T10:10:26.422Z,23.30
2023-02-08T10:11:26.404Z,22.40
2023-02-08T10:12:26.367Z,24.90
2023-02-08T10:13:40.618Z,24.80
2023-02-08T10:14:27.366Z,28.80
2023-02-08T10:15:26.397Z,30.70
2023-02-08T10:16:26.347Z,29.10
2023-02-08T10:17:26.341Z,26.50
2023-02-08T10:18:26.381Z,25.90
2023-02-08T10:19:26.313Z,23.10
2023-02-08T10:20:26.312Z,22.00
2023-02-08T10:21:26.268Z,20.70
2023-02-08T10:22:26.251Z,21.50
2023-02-08T10:23:26.276Z,21.60
2023-02-08T10:24:26.239Z,22.50
2023-02-08T10:25:26.287Z,21.00
2023-02-08T10:26:26.245Z,18.00
2023-02-08T10:27:26.242Z,17.40
2023-02-08T10:28:26.285Z,16.20
2023-02-08T10:29:26.197Z,25.20
2023-02-08T10:30:26.225Z,27.40
2023-02-08T10:31:26.228Z,25.20
2023-02-08T10:32:26.149Z,23.50
2023-02-08T10:33:26.127Z,23.80
2023-02-08T10:34:26.122Z,23.90
2023-02-08T10:35:26.191Z,27.10
2023-02-08T10:36:26.096Z,26.30
2023-02-08T10:37:26.093Z,26.90
2023-02-08T10:38:29.659Z,23.90
2023-02-08T10:39:27.058Z,24.70
2023-02-08T10:40:26.190Z,28.70
2023-02-08T10:41:26.079Z,26.40
2023-02-08T10:42:26.093Z,26.40
2023-02-08T10:43:26.049Z,25.40
2023-02-08T10:44:26.040Z,28.40
2023-02-08T10:45:26.070Z,26.80
2023-02-08T10:46:26.000Z,17.20
2023-02-08T10:47:25.990Z,15.20
2023-02-08T10:48:25.978Z,16.70
2023-02-08T10:49:25.954Z,15.20
2023-02-08T10:50:26.704Z,15.90
2023-02-08T10:51:25.934Z,16.20
2023-02-08T10:52:25.923Z,14.90
2023-02-08T10:53:25.924Z,16.90
2023-02-08T10:54:25.923Z,14.30
2023-02-08T10:55:25.920Z,15.80
2023-02-08T10:56:25.874Z,15.40
2023-02-08T10:57:25.898Z,14.70
2023-02-08T10:58:25.853Z,14.60
2023-02-08T10:59:25.848Z,16.40
2023-02-08T11:00:25.875Z,18.70
2023-02-08T11:01:25.866Z,18.00
2023-02-08T11:02:25.801Z,17.80
2023-02-08T11:03:25.789Z,12.90
2023-02-08T11:04:25.835Z,14.70
2023-02-08T11:05:25.821Z,13.50
2023-02-08T11:06:25.757Z,13.60
2023-02-08T11:07:25.749Z,12.70
2023-02-08T11:08:25.735Z,13.10
2023-02-08T11:09:25.738Z,13.40
2023-02-08T11:10:25.766Z,13.40
2023-02-08T11:11:25.719Z,11.40
2023-02-08T11:12:25.712Z,11.10
2023-02-08T11:13:25.701Z,11.20
2023-02-08T11:14:30.420Z,11.90
2023-02-08T11:15:26.705Z,12.60
2023-02-08T11:16:25.682Z,12.40
2023-02-08T11:17:25.654Z,12.70
2023-02-08T11:18:25.638Z,13.60
2023-02-08T11:19:25.626Z,15.30
2023-02-08T11:20:25.633Z,12.60
2023-02-08T11:21:25.597Z,12.20
2023-02-08T11:22:25.585Z,12.00
2023-02-08T11:23:25.577Z,12.40
2023-02-08T11:24:25.585Z,12.80
2023-02-08T11:25:25.593Z,13.40
2023-02-08T11:26:25.548Z,13.30
2023-02-08T11:27:25.554Z,14.50
2023-02-08T11:28:25.586Z,13.20
2023-02-08T11:29:25.496Z,11.90
2023-02-08T11:30:25.583Z,11.60
2023-02-08T11:31:25.520Z,11.00
2023-02-08T11:32:25.469Z,11.00
2023-02-08T11:33:25.474Z,12.20
2023-02-08T11:34:25.470Z,12.10
2023-02-08T11:35:25.481Z,11.30
2023-02-08T11:36:25.420Z,11.50
2023-02-08T11:37:25.419Z,11.50
2023-02-08T11:38:25.408Z,11.10
2023-02-08T11:39:25.407Z,10.30
2023-02-08T11:40:25.424Z,10.90
2023-02-08T11:41:25.380Z,10.50
2023-02-08T11:42:25.363Z,10.30
2023-02-08T11:43:25.361Z,9.20
2023-02-08T11:44:25.357Z,10.60
2023-02-08T11:45:25.376Z,10.50
2023-02-08T11:46:25.337Z,10.60
2023-02-08T11:47:25.319Z,10.70
2023-02-08T11:48:25.289Z,10.10
2023-02-08T11:49:25.282Z,10.40
2023-02-08T11:50:25.306Z,9.90
2023-02-08T11:51:25.254Z,10.50
2023-02-08T11:52:25.268Z,9.80
2023-02-08T11:53:25.252Z,10.20
2023-02-08T11:54:25.221Z,11.10
2023-02-08T11:55:25.268Z,10.90
2023-02-08T11:56:25.228Z,10.90
2023-02-08T11:57:25.206Z,10.60
2023-02-08T11:58:25.175Z,11.20
2023-02-08T11:59:25.177Z,10.80
2023-02-08T12:00:25.204Z,10.90
2023-02-08T12:01:25.151Z,10.70
2023-02-08T12:02:25.176Z,10.70
2023-02-08T12:03:25.161Z,10.60
2023-02-08T12:04:25.133Z,10.60
2023-02-08T12:05:25.147Z,10.80
2023-02-08T12:06:25.100Z,10.30
2023-02-08T12:07:25.080Z,10.50
2023-02-08T12:08:25.049Z,11.10
2023-02-08T12:09:25.063Z,10.90
2023-02-08T12:10:25.105Z,10.40
2023-02-08T12:11:25.043Z,9.90
2023-02-08T12:12:25.051Z,10.60
2023-02-08T12:13:25.033Z,10.50
2023-02-08T12:14:24.991Z,10.40
2023-02-08T12:15:25.042Z,10.00
2023-02-08T12:16:25.050Z,9.90
2023-02-08T12:17:24.981Z,9.60
2023-02-08T12:18:24.961Z,10.10
2023-02-08T12:19:24.968Z,10.30
2023-02-08T12:20:24.988Z,9.90
2023-02-08T12:21:24.930Z,9.50
2023-02-08T12:22:24.906Z,9.70
2023-02-08T12:23:24.918Z,10.10
2023-02-08T12:24:24.896Z,9.50
2023-02-08T12:25:24.945Z,9.40
2023-02-08T12:26:24.870Z,9.80
2023-02-08T12:27:24.878Z,9.30
2023-02-08T12:28:24.884Z,9.00
2023-02-08T12:29:24.856Z,8.70
2023-02-08T12:30:24.857Z,9.40
2023-02-08T12:31:24.882Z,9.20
2023-02-08T12:32:24.791Z,8.70
2023-02-08T12:33:24.808Z,8.40